Time;durP1;ratioP1;P1;durP2;ratioP2;P2;SDS_P1;SDS_P2;PMS_P1;PMS_P2;Temp;Humidity;BMP_temperature;BMP_pressure;BME280_temperature;BME280_humidity;BME280_pressure;Samples;Min_cycle;Max_cycle;Signal;HPM_P1;HPM_P2
2022/05/20 04:48:12;;;;;;;3.27;1.85;;;;;;;12.39;60.17;100549.88;1727938;82;21150;-40
2022/05/20 04:50:40;;;;;;;9.15;1.92;;;;;;;12.67;59.54;100551.52;1717075;83;21067;-46
2022/05/20 04:53:08;;;;;;;7.55;1.95;;;;;;;12.84;58.69;100549.25;1717152;83;21119;-47
2022/05/20 04:55:35;;;;;;;14.63;4.80;;;;;;;13.03;58.46;100561.39;1717387;83;22785;-39
2022/05/20 04:58:02;;;;;;;17.30;6.10;;;;;;;13.21;57.67;100574.88;1715388;82;21103;-47
2022/05/20 05:00:30;;;;;;;13.58;4.87;;;;;;;13.38;56.86;100579.58;1724779;83;21113;-47
2022/05/20 05:02:57;;;;;;;5.95;3.10;;;;;;;13.56;57.17;100585.14;1724230;82;21121;-46
2022/05/20 05:05:26;;;;;;;9.68;2.50;;;;;;;13.70;57.32;100585.92;1715040;83;21021;-48
2022/05/20 05:07:54;;;;;;;18.07;12.70;;;;;;;13.82;56.61;100584.95;1706439;83;21069;-40
2022/05/20 05:10:24;;;;;;;5.80;3.90;;;;;;;13.91;57.06;100583.53;1709867;82;21029;-40
2022/05/20 05:12:50;;;;;;;7.10;2.70;;;;;;;14.00;56.80;100582.15;1714853;82;21089;-40
2022/05/20 05:15:17;;;;;;;3.70;1.98;;;;;;;14.15;55.45;100584.19;1715778;83;21053;-47
2022/05/20 05:20:29;;;;;;;4.95;2.02;;;;;;;14.44;53.52;100557.14;1659662;85;21077;-39
2022/05/20 05:22:56;;;;;;;4.12;1.70;;;;;;;14.64;52.15;100555.60;1694488;83;21065;-39
2022/05/20 05:25:26;;;;;;;3.65;1.27;;;;;;;14.82;50.33;100545.27;1718803;83;21069;-39
2022/05/20 05:27:52;;;;;;;3.20;1.72;;;;;;;15.00;49.93;100544.14;1716515;83;21100;-39
2022/05/20 05:30:22;;;;;;;2.83;1.32;;;;;;;15.25;48.45;100550.82;1711453;84;21492;-46
2022/05/20 05:32:49;;;;;;;3.70;1.50;;;;;;;15.53;47.17;100557.83;1711257;84;21117;-39
2022/05/20 05:35:20;;;;;;;2.80;1.30;;;;;;;15.75;46.86;100561.47;1711815;82;21049;-46
2022/05/20 05:37:46;;;;;;;1.95;1.52;;;;;;;15.89;45.99;100578.81;1698472;82;21138;-39
2022/05/20 05:40:17;;;;;;;1.95;1.20;;;;;;;15.98;45.87;100572.49;1717504;82;21026;-46
2022/05/20 05:42:44;;;;;;;5.22;1.70;;;;;;;16.07;45.71;100571.47;1717831;82;21114;-46
2022/05/20 05:45:11;;;;;;;2.00;1.32;;;;;;;16.20;45.88;100572.53;1708013;82;21079;-40
2022/05/20 05:47:39;;;;;;;3.35;1.27;;;;;;;16.36;43.73;100565.19;1649077;87;21091;-40
2022/05/20 05:50:07;;;;;;;4.85;1.42;;;;;;;16.47;42.69;100560.58;1674348;84;21073;-40
2022/05/20 05:52:33;;;;;;;1.98;1.55;;;;;;;16.55;42.32;100565.69;1670355;85;21083;-47
2022/05/20 05:55:04;;;;;;;2.30;1.20;;;;;;;16.58;42.10;100566.06;1667008;84;21023;-40
2022/05/20 05:57:31;;;;;;;1.67;1.20;;;;;;;16.59;42.42;100564.73;1666039;84;21066;-47
2022/05/20 05:59:58;;;;;;;2.35;1.37;;;;;;;16.60;43.13;100568.25;1678478;84;21119;-40
2022/05/20 06:02:25;;;;;;;3.05;1.40;;;;;;;16.59;42.68;100569.16;1667281;84;21120;-39
2022/05/20 06:04:51;;;;;;;3.22;1.55;;;;;;;16.57;41.83;100569.16;1659667;86;21038;-41
2022/05/20 06:07:18;;;;;;;4.15;1.30;;;;;;;16.53;41.66;100561.36;1706961;82;21077;-40
2022/05/20 06:09:45;;;;;;;5.90;1.60;;;;;;;16.50;42.53;100557.85;1703359;84;21022;-40
2022/05/20 06:12:14;;;;;;;2.45;1.37;;;;;;;16.47;42.07;100559.70;1700503;84;21523;-46
2022/05/20 06:14:42;;;;;;;1.85;1.12;;;;;;;16.41;42.40;100564.66;1700756;84;21454;-46
2022/05/20 06:17:12;;;;;;;6.75;1.65;;;;;;;16.38;42.49;100562.52;1690028;84;21150;-40
2022/05/20 06:19:41;;;;;;;4.15;1.25;;;;;;;16.36;42.57;100568.28;1662985;84;20993;-41
2022/05/20 06:22:08;;;;;;;2.92;1.60;;;;;;;16.34;42.15;100584.13;1661013;86;21065;-48
2022/05/20 06:24:35;;;;;;;6.12;4.20;;;;;;;16.32;41.98;100582.44;1693853;84;21587;-47
2022/05/20 06:27:03;;;;;;;13.70;1.75;;;;;;;16.28;42.48;100585.57;1670467;84;21477;-40
2022/05/20 06:29:30;;;;;;;6.60;1.50;;;;;;;16.23;42.32;100585.68;1664192;85;21025;-41
2022/05/20 06:31:59;;;;;;;3.87;1.45;;;;;;;16.20;42.77;100588.36;1668303;85;21059;-40
2022/05/20 06:34:26;;;;;;;4.05;1.40;;;;;;;16.16;43.11;100596.36;1669528;85;21018;-47
2022/05/20 06:39:49;;;;;;;1.90;1.30;;;;;;;16.04;44.19;100594.81;1682369;85;21509;-40
2022/05/20 06:42:16;;;;;;;3.87;1.30;;;;;;;16.00;44.08;100593.56;1678749;85;21067;-47
2022/05/20 06:44:45;;;;;;;4.33;1.55;;;;;;;15.95;44.35;100593.22;1686293;85;20996;-47
2022/05/20 06:47:12;;;;;;;2.20;1.30;;;;;;;15.92;43.91;100598.53;1685610;85;21106;-40
2022/05/20 06:49:39;;;;;;;5.97;1.80;;;;;;;15.86;44.72;100599.95;1693437;84;21922;-47
2022/05/20 06:52:06;;;;;;;4.47;1.37;;;;;;;15.80;44.93;100610.61;1652245;84;21575;-47
2022/05/20 06:54:33;;;;;;;2.65;1.27;;;;;;;15.73;45.57;100616.03;1631986;85;21622;-47
2022/05/20 06:56:59;;;;;;;3.87;1.35;;;;;;;15.65;46.55;100618.34;1664227;83;21518;-46
2022/05/20 06:59:26;;;;;;;2.65;1.80;;;;;;;15.59;48.76;100619.69;1702644;83;21056;-47
2022/05/20 07:01:54;;;;;;;5.85;1.40;;;;;;;15.54;50.00;100624.61;1711987;82;21108;-46
2022/05/20 07:04:20;;;;;;;4.03;1.62;;;;;;;15.49;50.59;100626.48;1715860;82;21026;-41
2022/05/20 07:06:47;;;;;;;10.35;1.80;;;;;;;15.41;50.73;100627.44;1731345;81;21058;-46
2022/05/20 07:09:13;;;;;;;5.85;2.00;;;;;;;15.35;51.10;100622.25;1712569;81;20997;-46
2022/05/20 07:11:42;;;;;;;2.72;1.37;;;;;;;15.29;51.71;100614.44;1730639;82;21085;-47
2022/05/20 07:14:09;;;;;;;4.33;2.47;;;;;;;15.24;51.93;100616.27;1722737;82;21014;-40
2022/05/20 07:16:36;;;;;;;5.33;2.40;;;;;;;15.21;52.72;100619.41;1704651;83;21541;-41
2022/05/20 07:19:02;;;;;;;3.67;2.22;;;;;;;15.17;52.58;100610.20;1704737;82;21587;-40
2022/05/20 07:21:29;;;;;;;3.75;2.27;;;;;;;15.14;52.65;100615.98;1704355;84;21077;-47
2022/05/20 07:23:55;;;;;;;3.33;1.98;;;;;;;15.07;53.52;100616.48;1705749;83;21026;-46
2022/05/20 07:26:23;;;;;;;2.83;1.60;;;;;;;15.01;54.27;100615.70;1705672;83;21070;-47
2022/05/20 07:28:51;;;;;;;4.05;2.40;;;;;;;14.95;55.20;100616.66;1707139;82;21061;-47
2022/05/20 07:31:18;;;;;;;3.92;2.20;;;;;;;14.88;56.27;100618.50;1722587;83;21097;-46
2022/05/20 07:33:45;;;;;;;4.95;2.12;;;;;;;14.83;57.06;100612.41;1718089;82;21070;-40
2022/05/20 07:36:11;;;;;;;6.92;2.65;;;;;;;14.80;58.14;100613.78;1703894;83;21518;-41
2022/05/20 07:38:38;;;;;;;6.97;3.95;;;;;;;14.79;58.32;100617.77;1700832;82;21062;-39
2022/05/20 07:41:04;;;;;;;5.47;3.40;;;;;;;14.76;59.73;100619.97;1705329;83;21558;-39
2022/05/20 07:43:31;;;;;;;3.00;2.33;;;;;;;14.77;61.09;100622.16;1704680;83;21124;-46
2022/05/20 07:45:58;;;;;;;4.95;1.95;;;;;;;14.82;61.53;100630.88;1707221;83;21447;-40
2022/05/20 07:48:24;;;;;;;8.93;2.80;;;;;;;14.87;63.10;100634.33;1708547;82;21106;-39
2022/05/20 07:50:55;;;;;;;7.35;2.10;;;;;;;14.91;64.00;100633.41;1703674;83;21036;-45
2022/05/20 07:53:23;;;;;;;9.98;3.02;;;;;;;14.97;63.24;100635.09;1700538;82;21073;-46
2022/05/20 07:55:56;;;;;;;15.75;3.33;;;;;;;15.02;62.89;100639.42;1704760;84;21046;-39
2022/05/20 07:58:27;;;;;;;7.10;2.87;;;;;;;15.07;63.61;100642.84;1705086;83;21050;-46
2022/05/20 08:00:58;;;;;;;5.40;2.50;;;;;;;15.09;63.17;100639.76;1720904;83;21094;-40
2022/05/20 08:06:08;;;;;;;2.25;1.72;;;;;;;15.01;63.59;100653.45;1701580;83;21545;-45
2022/05/20 08:08:34;;;;;;;4.15;1.87;;;;;;;14.95;63.27;100656.17;1707149;82;21554;-45
2022/05/20 08:11:01;;;;;;;3.95;2.45;;;;;;;14.90;61.34;100657.98;1716738;82;20997;-40
2022/05/20 08:13:28;;;;;;;2.65;1.75;;;;;;;14.84;62.26;100662.91;1706835;82;21073;-39
2022/05/20 08:15:54;;;;;;;8.63;1.82;;;;;;;14.77;61.87;100662.97;1707969;83;21018;-45
2022/05/20 08:18:21;;;;;;;3.55;1.95;;;;;;;14.72;62.90;100666.09;1704394;83;21156;-38
2022/05/20 08:20:47;;;;;;;3.55;1.87;;;;;;;14.63;63.61;100674.54;1706203;83;21033;-45
2022/05/20 08:23:14;;;;;;;5.33;1.80;;;;;;;14.54;64.59;100674.63;1715702;83;21069;-44
2022/05/20 08:25:40;;;;;;;5.83;1.65;;;;;;;14.45;64.93;100673.39;1704419;84;21513;-38
2022/05/20 08:28:07;;;;;;;5.67;1.75;;;;;;;14.39;66.28;100669.50;1705431;82;21050;-45
2022/05/20 08:30:34;;;;;;;1.95;1.75;;;;;;;14.33;67.06;100662.53;1719390;83;20957;-38
2022/05/20 08:33:01;;;;;;;3.42;2.17;;;;;;;14.29;69.52;100663.89;1712563;83;21101;-38
2022/05/20 08:35:27;;;;;;;9.20;2.05;;;;;;;14.25;70.48;100660.84;1708067;83;21072;-44
2022/05/20 08:37:54;;;;;;;5.85;2.30;;;;;;;14.21;70.25;100656.07;1711924;83;21093;-37
2022/05/20 08:40:29;;;;;;;3.77;2.35;;;;;;;14.17;70.30;100644.27;1688972;85;21061;-39
2022/05/20 08:42:57;;;;;;;6.40;1.98;;;;;;;14.15;69.55;100639.44;1692016;82;21571;-40
2022/05/20 08:45:27;;;;;;;11.73;2.12;;;;;;;14.15;69.79;100635.08;1705463;83;21668;-45
2022/05/20 08:47:54;;;;;;;2.12;1.87;;;;;;;14.15;70.34;100629.82;1714470;82;21070;-40
2022/05/20 08:50:35;;;;;;;3.60;2.33;;;;;;;14.14;69.76;100618.84;1709480;84;21089;-39
2022/05/20 08:53:13;;;;;;;3.10;2.00;;;;;;;14.16;69.87;100617.08;1709264;83;21082;-47
2022/05/20 08:55:41;;;;;;;6.28;2.10;;;;;;;14.20;70.04;100606.94;1708887;84;21501;-47
2022/05/20 08:58:08;;;;;;;2.58;1.80;;;;;;;14.25;70.68;100597.23;1708885;84;21021;-45
2022/05/20 09:00:34;;;;;;;7.92;2.33;;;;;;;14.32;68.93;100598.95;1646051;84;21525;-47
2022/05/20 09:03:06;;;;;;;4.17;1.90;;;;;;;14.38;68.40;100600.64;1673262;85;21138;-39
2022/05/20 09:05:33;;;;;;;3.50;1.80;;;;;;;14.44;69.27;100591.77;1658474;84;20967;-39
2022/05/20 09:08:07;;;;;;;4.40;1.90;;;;;;;14.52;67.95;100586.03;1655827;86;21519;-39
2022/05/20 09:10:45;;;;;;;4.67;2.22;;;;;;;14.56;67.36;100589.94;1654522;86;21033;-40
2022/05/20 09:16:31;;;;;;;5.78;1.90;;;;;;;14.78;66.87;100580.44;1694462;84;21497;-39
2022/05/20 09:19:10;;;;;;;3.62;1.47;;;;;;;14.97;67.29;100583.72;1686646;83;21548;-39
2022/05/20 09:21:41;;;;;;;2.85;1.95;;;;;;;15.11;66.85;100577.80;1700384;84;21485;-39
2022/05/20 09:24:17;;;;;;;4.25;2.10;;;;;;;15.27;67.21;100573.19;1678889;84;21025;-39
2022/05/20 09:26:48;;;;;;;9.28;2.55;;;;;;;15.36;66.70;100569.95;1712403;83;20998;-39
2022/05/20 09:29:50;;;;;;;5.78;2.65;;;;;;;15.53;66.37;100558.27;1677746;84;21450;-39
2022/05/20 09:32:28;;;;;;;4.05;2.05;;;;;;;15.69;66.62;100555.84;1681251;85;21870;-40
2022/05/20 09:35:21;;;;;;;2.90;1.90;;;;;;;15.87;67.39;100554.20;1707130;82;21005;-40
2022/05/20 09:37:52;;;;;;;10.45;2.20;;;;;;;16.02;64.76;100553.08;1722461;82;21056;-39
2022/05/20 09:40:25;;;;;;;2.80;1.67;;;;;;;16.14;64.76;100547.56;1702912;83;21061;-40
2022/05/20 09:43:28;;;;;;;10.33;2.03;;;;;;;16.31;64.93;100540.64;1706532;84;21117;-39
2022/05/20 09:46:00;;;;;;;7.17;1.75;;;;;;;16.49;63.88;100540.73;1717250;83;21364;-41
2022/05/20 09:48:40;;;;;;;4.10;2.17;;;;;;;16.67;62.76;100544.76;1717357;82;21086;-40
2022/05/20 09:51:20;;;;;;;7.10;2.20;;;;;;;16.80;62.26;100537.47;1710894;83;21064;-40
2022/05/20 09:54:10;;;;;;;5.72;1.92;;;;;;;16.94;61.50;100536.27;1715053;82;21096;-40
2022/05/20 09:56:46;;;;;;;5.78;1.90;;;;;;;17.04;60.86;100538.23;1693220;85;21016;-40
2022/05/20 09:59:45;;;;;;;4.15;1.62;;;;;;;17.16;61.42;100537.09;1710307;83;21052;-40
2022/05/20 10:02:31;;;;;;;11.85;1.90;;;;;;;17.34;62.22;100537.13;1723943;83;21044;-39
2022/05/20 10:05:04;;;;;;;8.03;1.85;;;;;;;17.54;60.69;100538.37;1697465;81;21045;-41
2022/05/20 10:07:45;;;;;;;4.75;1.67;;;;;;;17.73;59.89;100537.94;1696649;83;21069;-40
2022/05/20 10:10:25;;;;;;;9.05;1.95;;;;;;;17.81;59.77;100530.23;1659630;85;21544;-40
2022/05/20 10:12:52;;;;;;;3.90;1.55;;;;;;;17.84;59.39;100522.65;1659832;85;21057;-40
2022/05/20 10:15:29;;;;;;;6.92;2.27;;;;;;;17.95;59.75;100521.05;1684483;83;21068;-46
2022/05/20 10:18:31;;;;;;;4.22;1.92;;;;;;;18.04;61.11;100512.42;1681938;83;21109;-47
2022/05/20 10:21:43;;;;;;;5.97;2.10;;;;;;;18.21;60.95;100514.60;1668067;85;21096;-46
2022/05/20 10:24:44;;;;;;;6.30;1.90;;;;;;;18.46;61.17;100509.47;1663649;86;21163;-39
2022/05/20 10:27:21;;;;;;;6.83;1.80;;;;;;;18.77;59.84;100504.14;1663721;86;21065;-47
2022/05/20 10:33:10;;;;;;;3.92;2.35;;;;;;;19.49;55.87;100499.22;1666703;84;21085;-42
2022/05/20 10:36:00;;;;;;;2.87;2.10;;;;;;;19.85;53.09;100488.28;1676519;85;21086;-40
2022/05/20 10:39:01;;;;;;;4.97;2.05;;;;;;;20.05;52.26;100476.48;1679379;85;21159;-40
2022/05/20 10:41:39;;;;;;;5.10;1.72;;;;;;;20.31;53.48;100468.89;1667672;85;21552;-47
2022/05/20 10:50:33;;;;;;;4.62;1.92;;;;;;;20.57;52.64;100452.44;1687158;84;21021;-46
2022/05/20 10:53:36;;;;;;;3.72;1.70;;;;;;;20.59;49.67;100451.94;1704136;82;21099;-47
2022/05/20 10:56:43;;;;;;;5.10;1.55;;;;;;;20.51;49.88;100452.68;1604976;89;21051;-38
2022/05/20 10:59:15;;;;;;;5.15;1.25;;;;;;;20.40;49.64;100445.95;1612226;88;21702;-46
2022/05/20 11:02:20;;;;;;;8.75;1.42;;;;;;;20.33;48.45;100443.59;1602324;89;21633;-46
2022/05/20 11:05:05;;;;;;;2.72;1.60;;;;;;;20.30;49.04;100441.06;1603912;89;21107;-46
2022/05/20 11:07:53;;;;;;;8.93;2.02;;;;;;;20.29;49.50;100436.65;1602726;88;21685;-47
2022/05/20 11:10:50;;;;;;;6.72;1.35;;;;;;;20.26;48.38;100434.13;1605680;88;21537;-46
2022/05/20 11:13:34;;;;;;;4.33;1.40;;;;;;;20.26;48.14;100432.80;1615912;88;21671;-46
2022/05/20 11:16:29;;;;;;;3.27;1.30;;;;;;;20.28;47.95;100431.80;1635406;88;21061;-46
2022/05/20 11:19:31;;;;;;;3.25;1.25;;;;;;;20.30;47.27;100427.78;1612475;88;21246;-46
2022/05/20 11:22:38;;;;;;;3.17;1.40;;;;;;;20.33;48.11;100428.98;1604606;89;21542;-47
2022/05/20 11:25:26;;;;;;;3.77;1.82;;;;;;;20.38;47.83;100427.02;1605442;89;21108;-47
2022/05/20 11:28:33;;;;;;;3.37;1.42;;;;;;;20.44;48.13;100423.66;1668093;84;21083;-47
2022/05/20 11:31:26;;;;;;;2.33;1.40;;;;;;;20.51;47.07;100415.48;1686065;85;21609;-40
2022/05/20 11:34:12;;;;;;;4.37;1.25;;;;;;;20.62;46.28;100413.27;1716919;83;21068;-47
2022/05/20 11:37:02;;;;;;;1.60;1.25;;;;;;;20.76;45.69;100402.97;1726735;83;21056;-47
2022/05/20 11:40:08;;;;;;;2.67;1.40;;;;;;;20.98;45.26;100397.15;1726957;83;21056;-39
2022/05/20 11:42:56;;;;;;;2.85;1.40;;;;;;;21.27;45.28;100389.74;1733191;82;21100;-40
2022/05/20 11:45:46;;;;;;;3.20;1.80;;;;;;;21.47;44.30;100383.14;1732418;82;21007;-47
2022/05/20 11:48:44;;;;;;;1.62;1.25;;;;;;;21.58;43.44;100380.02;1739764;82;21001;-46
2022/05/20 11:51:25;;;;;;;7.62;1.37;;;;;;;21.65;43.59;100373.48;1739500;82;20989;-40
2022/05/20 11:54:33;;;;;;;3.83;1.50;;;;;;;21.72;43.76;100377.59;1715202;82;21029;-40
2022/05/20 11:57:12;;;;;;;1.77;1.30;;;;;;;21.74;44.10;100367.77;1735462;82;21030;-39
2022/05/20 11:59:59;;;;;;;3.37;1.42;;;;;;;21.76;43.39;100365.02;1730572;82;21100;-47
2022/05/20 12:02:26;;;;;;;5.30;1.47;;;;;;;21.73;43.07;100359.82;1732461;82;21074;-40
2022/05/20 12:04:53;;;;;;;2.65;1.50;;;;;;;21.61;39.07;100357.70;1727788;82;21007;-47
